Time;durP1;ratioP1;P1;durP2;ratioP2;P2;SDS_P1;SDS_P2;PMS_P1;PMS_P2;Temp;Humidity;BMP_temperature;BMP_pressure;BME280_temperature;BME280_humidity;BME280_pressure;Samples;Min_cycle;Max_cycle;Signal;HPM_P1;HPM_P2
2022/10/17 00:00:04;;;;;;;11.77;7.15;;;;;;;13.97;100.00;101465.22;5089000;28;20028;-66
2022/10/17 00:02:29;;;;;;;13.13;6.30;;;;;;;13.97;100.00;101475.81;5081953;28;20039;-67
2022/10/17 00:04:55;;;;;;;10.95;6.78;;;;;;;13.95;100.00;101476.66;5083525;28;20028;-67
2022/10/17 00:07:20;;;;;;;7.72;6.20;;;;;;;13.94;100.00;101469.56;5086951;28;20360;-67
2022/10/17 00:09:45;;;;;;;9.93;7.15;;;;;;;13.92;100.00;101471.31;5081917;28;20020;-67
2022/10/17 00:12:11;;;;;;;9.82;6.63;;;;;;;13.90;100.00;101473.91;5089681;28;20820;-66
2022/10/17 00:14:36;;;;;;;12.25;6.53;;;;;;;13.91;100.00;101469.53;5083208;28;20109;-67
2022/10/17 00:17:02;;;;;;;9.57;6.45;;;;;;;13.90;100.00;101473.03;5087727;28;20094;-68
2022/10/17 00:19:27;;;;;;;8.77;6.65;;;;;;;13.87;100.00;101468.59;5079984;28;20029;-67
2022/10/17 00:21:53;;;;;;;8.63;6.40;;;;;;;13.90;100.00;101462.47;5083522;28;20391;-67
2022/10/17 00:24:18;;;;;;;10.85;6.80;;;;;;;13.88;100.00;101453.63;5081098;28;20035;-67
2022/10/17 00:26:43;;;;;;;10.35;6.80;;;;;;;13.86;100.00;101450.94;5093883;28;20037;-67
2022/10/17 00:29:09;;;;;;;10.90;7.63;;;;;;;13.85;100.00;101451.84;5083242;28;20020;-67
2022/10/17 00:31:34;;;;;;;12.02;7.75;;;;;;;13.84;100.00;101455.34;5085450;28;20027;-67
2022/10/17 00:34:00;;;;;;;10.93;8.35;;;;;;;13.84;100.00;101457.97;5086331;28;20020;-67
2022/10/17 00:36:26;;;;;;;14.15;7.13;;;;;;;13.83;100.00;101449.13;5076326;28;20064;-66
2022/10/17 00:38:54;;;;;;;14.00;8.35;;;;;;;13.80;100.00;101451.75;5077539;28;20032;-67
2022/10/17 00:41:24;;;;;;;14.10;8.35;;;;;;;13.79;100.00;101443.81;5088967;28;20029;-67
2022/10/17 00:44:00;;;;;;;12.52;7.60;;;;;;;13.79;100.00;101451.75;5087240;28;20031;-66
2022/10/17 00:46:31;;;;;;;10.88;7.60;;;;;;;13.79;100.00;101452.63;5093157;28;20078;-66
2022/10/17 00:49:01;;;;;;;12.50;8.73;;;;;;;13.79;100.00;101452.63;5084099;28;20412;-67
2022/10/17 00:51:32;;;;;;;10.93;8.32;;;;;;;13.79;100.00;101462.31;5078698;28;20048;-66
2022/10/17 00:53:59;;;;;;;15.98;9.00;;;;;;;13.80;100.00;101456.16;5092116;28;20036;-67
2022/10/17 00:56:25;;;;;;;12.43;8.43;;;;;;;13.79;100.00;101452.63;5086326;28;20058;-67
2022/10/17 00:58:51;;;;;;;12.52;8.73;;;;;;;13.80;100.00;101451.75;5079805;28;20035;-67
2022/10/17 01:01:16;;;;;;;11.57;8.50;;;;;;;13.81;100.00;101453.53;5079988;28;20494;-66
2022/10/17 01:03:42;;;;;;;11.18;9.05;;;;;;;13.80;100.00;101451.75;5087819;28;20448;-67
2022/10/17 01:06:07;;;;;;;13.98;8.40;;;;;;;13.82;100.00;101455.31;5076882;28;20158;-67
2022/10/17 01:08:32;;;;;;;10.45;8.32;;;;;;;13.82;100.00;101441.19;5091048;28;20024;-67
2022/10/17 01:11:25;;;;;;;11.88;8.73;;;;;;;13.82;100.00;101439.44;5084183;28;20433;-67
2022/10/17 01:13:58;;;;;;;11.07;8.75;;;;;;;13.83;100.00;101442.97;5084470;28;20031;-66
2022/10/17 01:16:39;;;;;;;17.35;8.75;;;;;;;13.85;100.00;101448.28;5075218;28;20038;-67
2022/10/17 01:19:25;;;;;;;13.77;8.88;;;;;;;13.85;100.00;101438.59;5079671;28;20086;-67
2022/10/17 01:22:18;;;;;;;15.25;8.82;;;;;;;13.82;100.00;101433.25;5092929;28;20032;-67
2022/10/17 01:24:53;;;;;;;13.55;9.25;;;;;;;13.81;100.00;101428.84;5084247;28;20093;-66
2022/10/17 01:27:35;;;;;;;14.43;8.50;;;;;;;13.80;100.00;101425.31;5091339;28;20040;-67
2022/10/17 01:30:34;;;;;;;18.10;10.25;;;;;;;13.77;100.00;101409.41;5083657;28;20024;-67
2022/10/17 01:33:29;;;;;;;14.02;9.30;;;;;;;13.77;100.00;101398.81;5084061;28;20100;-67
2022/10/17 01:36:09;;;;;;;11.57;9.30;;;;;;;13.75;100.00;101405.84;5081643;28;20032;-67
2022/10/17 01:38:46;;;;;;;11.27;8.98;;;;;;;13.73;100.00;101397.00;5091783;28;20387;-68
2022/10/17 01:41:26;;;;;;;12.35;8.45;;;;;;;13.71;100.00;101396.09;5092637;28;20118;-66
2022/10/17 01:44:02;;;;;;;14.02;10.25;;;;;;;13.73;100.00;101393.50;5088899;28;20035;-66
2022/10/17 01:46:32;;;;;;;14.02;10.02;;;;;;;13.72;100.00;101392.59;5085242;28;20034;-67
2022/10/17 01:49:01;;;;;;;12.93;9.35;;;;;;;13.72;100.00;101403.16;5083232;28;20036;-66
2022/10/17 01:51:35;;;;;;;11.77;9.75;;;;;;;13.69;100.00;101395.19;5089977;28;20044;-65
2022/10/17 01:54:08;;;;;;;12.98;9.63;;;;;;;13.70;100.00;101402.28;5086171;28;20036;-67
2022/10/17 01:56:35;;;;;;;12.82;9.30;;;;;;;13.68;100.00;101404.00;5092141;28;20092;-67
2022/10/17 01:59:13;;;;;;;13.00;8.85;;;;;;;13.65;100.00;101391.63;5076157;28;20035;-67
2022/10/17 02:01:42;;;;;;;13.70;9.20;;;;;;;13.64;100.00;101384.53;5083258;28;20088;-66
2022/10/17 02:04:10;;;;;;;14.13;10.00;;;;;;;13.67;100.00;101381.06;5086167;28;20435;-66
2022/10/17 02:06:37;;;;;;;14.18;9.45;;;;;;;13.67;100.00;101391.63;5078678;28;20050;-67
2022/10/17 02:09:20;;;;;;;14.75;9.23;;;;;;;13.66;100.00;101380.19;5087055;28;20035;-67
2022/10/17 02:12:01;;;;;;;12.13;8.90;;;;;;;13.64;100.00;101376.59;5088728;28;20016;-67
2022/10/17 02:14:54;;;;;;;14.27;10.85;;;;;;;13.62;100.00;101372.19;5086486;28;20032;-67
2022/10/17 02:17:22;;;;;;;18.15;9.45;;;;;;;13.58;100.00;101365.97;5079876;28;20028;-68
2022/10/17 02:20:08;;;;;;;14.73;9.52;;;;;;;13.59;100.00;101366.84;5086155;28;20036;-67
2022/10/17 02:23:03;;;;;;;15.20;9.70;;;;;;;13.56;100.00;101364.19;5079183;28;20020;-67
2022/10/17 02:25:42;;;;;;;16.48;9.68;;;;;;;13.58;100.00;101363.34;5076441;28;20448;-66
2022/10/17 02:28:14;;;;;;;13.75;10.25;;;;;;;13.59;100.00;101358.91;5089180;28;20020;-68
2022/10/17 02:30:53;;;;;;;14.85;9.48;;;;;;;13.57;100.00;101360.66;5091179;28;20525;-66
2022/10/17 02:33:30;;;;;;;15.35;10.35;;;;;;;13.57;100.00;101352.75;5093882;28;20418;-65
2022/10/17 02:35:59;;;;;;;18.45;9.77;;;;;;;13.53;100.00;101346.50;5081754;28;20036;-66
2022/10/17 02:38:28;;;;;;;16.83;10.45;;;;;;;13.55;100.00;101359.75;5087713;28;20081;-66
2022/10/17 02:40:54;;;;;;;13.88;9.68;;;;;;;13.53;100.00;101366.78;5088015;28;20031;-66
2022/10/17 02:43:21;;;;;;;17.10;9.95;;;;;;;13.54;100.00;101368.53;5084478;28;20540;-67
2022/10/17 02:45:48;;;;;;;14.38;9.60;;;;;;;13.57;100.00;101369.47;5095668;28;20391;-66
2022/10/17 02:48:56;;;;;;;13.02;10.60;;;;;;;13.57;100.00;101373.91;5094818;28;20028;-66
2022/10/17 02:51:46;;;;;;;19.88;11.00;;;;;;;13.59;100.00;101372.13;5020019;28;20112;-66
2022/10/17 02:54:38;;;;;;;15.63;10.68;;;;;;;13.61;100.00;101381.88;5087905;28;20479;-67
2022/10/17 02:57:27;;;;;;;16.35;10.27;;;;;;;13.64;100.00;101386.31;5084150;28;20051;-65
2022/10/17 02:59:56;;;;;;;14.95;10.00;;;;;;;13.64;100.00;101389.84;5084405;28;20032;-67
2022/10/17 03:02:21;;;;;;;15.23;10.73;;;;;;;13.67;100.00;101396.91;5092682;28;20099;-66
2022/10/17 03:04:47;;;;;;;18.23;10.70;;;;;;;13.71;100.00;101404.03;5094130;28;20161;-67
2022/10/17 03:07:12;;;;;;;16.38;10.40;;;;;;;13.72;100.00;101394.34;5093528;28;20031;-67
2022/10/17 03:09:38;;;;;;;16.80;10.10;;;;;;;13.76;100.00;101393.53;5082158;28;20032;-67
2022/10/17 03:12:04;;;;;;;12.73;9.43;;;;;;;13.80;100.00;101390.03;5082192;28;20024;-67
2022/10/17 03:14:29;;;;;;;20.38;10.20;;;;;;;13.88;100.00;101393.66;5085224;28;20031;-66
2022/10/17 03:16:55;;;;;;;15.07;9.95;;;;;;;13.91;100.00;101380.47;5088599;28;20353;-65
2022/10/17 03:19:20;;;;;;;15.45;9.82;;;;;;;13.95;100.00;101381.41;5091641;28;20024;-67
2022/10/17 03:21:45;;;;;;;17.90;10.60;;;;;;;13.97;100.00;101385.84;5091177;28;20108;-67
2022/10/17 03:24:11;;;;;;;16.10;10.48;;;;;;;14.00;100.00;101385.00;5079029;28;20016;-67
2022/10/17 03:26:36;;;;;;;12.75;9.68;;;;;;;14.03;100.00;101390.31;5080649;28;20407;-67
2022/10/17 03:29:02;;;;;;;13.95;9.00;;;;;;;14.04;100.00;101386.78;5095179;28;20058;-66
2022/10/17 03:31:27;;;;;;;17.08;9.95;;;;;;;14.05;100.00;101391.19;5087825;28;20490;-68
2022/10/17 03:33:53;;;;;;;17.17;9.80;;;;;;;14.05;100.00;101388.53;5090283;28;20013;-67
2022/10/17 03:36:19;;;;;;;13.98;10.35;;;;;;;14.04;100.00;101383.25;5078474;28;20020;-66
2022/10/17 03:38:45;;;;;;;11.40;9.18;;;;;;;14.03;100.00;101382.38;5079774;28;20074;-66
2022/10/17 03:41:10;;;;;;;15.35;10.32;;;;;;;14.01;100.00;101381.44;5091261;28;20023;-66
2022/10/17 03:43:36;;;;;;;14.07;9.10;;;;;;;14.01;100.00;101389.38;5092735;28;20043;-65
2022/10/17 03:46:02;;;;;;;13.43;9.82;;;;;;;13.98;100.00;101387.63;5087223;28;20118;-67
2022/10/17 03:48:29;;;;;;;17.35;9.88;;;;;;;13.97;100.00;101384.94;5091696;28;20111;-68
2022/10/17 03:51:00;;;;;;;13.68;9.18;;;;;;;14.00;100.00;101385.00;5076185;28;20113;-68
2022/10/17 03:53:26;;;;;;;14.15;9.48;;;;;;;13.99;100.00;101386.72;5089379;28;20024;-67
2022/10/17 03:55:51;;;;;;;15.80;9.90;;;;;;;14.01;100.00;101397.31;5094982;28;20028;-67
2022/10/17 03:58:16;;;;;;;13.32;10.18;;;;;;;13.98;100.00;101392.00;5092622;28;20034;-67
2022/10/17 04:00:41;;;;;;;13.02;9.38;;;;;;;13.99;100.00;101392.03;5094158;28;20024;-66
2022/10/17 04:03:07;;;;;;;13.45;8.20;;;;;;;14.00;100.00;101392.94;5079366;28;20078;-68
2022/10/17 04:05:32;;;;;;;11.95;9.18;;;;;;;14.03;100.00;101394.72;5091234;28;20035;-67
2022/10/17 04:07:57;;;;;;;15.50;10.38;;;;;;;14.04;100.00;101401.75;5086896;28;20024;-67
2022/10/17 04:10:23;;;;;;;16.95;9.43;;;;;;;14.04;100.00;101396.47;5083441;28;20357;-67
2022/10/17 04:12:48;;;;;;;13.18;9.55;;;;;;;14.05;100.00;101399.13;5082889;28;20391;-67
2022/10/17 04:15:14;;;;;;;15.38;8.48;;;;;;;14.11;100.00;101404.50;5087277;28;20476;-67
2022/10/17 04:17:39;;;;;;;14.90;10.40;;;;;;;14.16;100.00;101408.09;5078935;28;20498;-68
2022/10/17 04:20:05;;;;;;;23.95;10.20;;;;;;;14.21;100.00;101413.44;5076185;28;20089;-67
2022/10/17 04:22:30;;;;;;;19.63;10.77;;;;;;;14.27;100.00;101399.34;5087934;28;20388;-66
2022/10/17 04:24:56;;;;;;;18.33;10.32;;;;;;;14.32;100.00;101392.34;5078274;28;20454;-66
2022/10/17 04:27:21;;;;;;;17.75;10.93;;;;;;;14.42;100.00;101398.63;5079992;28;20103;-67
2022/10/17 04:29:46;;;;;;;20.10;10.23;;;;;;;14.46;100.00;101406.63;5080341;28;20382;-65
2022/10/17 04:32:12;;;;;;;13.68;9.52;;;;;;;14.53;100.00;101411.97;5083135;28;20103;-67
2022/10/17 04:34:37;;;;;;;15.32;10.20;;;;;;;14.59;100.00;101415.56;5090872;28;20376;-68
2022/10/17 04:37:03;;;;;;;18.17;10.82;;;;;;;14.65;100.00;101418.31;5086165;28;20020;-66
2022/10/17 04:39:28;;;;;;;16.17;9.27;;;;;;;14.75;100.00;101415.75;5080162;28;20056;-66
2022/10/17 04:41:55;;;;;;;15.13;10.88;;;;;;;14.75;100.00;101419.28;5078410;28;20073;-66
2022/10/17 04:44:20;;;;;;;20.08;8.82;;;;;;;14.80;100.00;101411.38;5085689;28;20039;-67
2022/10/17 04:46:46;;;;;;;18.20;9.27;;;;;;;14.82;100.00;101412.28;5083596;28;20031;-68
2022/10/17 04:49:11;;;;;;;18.65;9.32;;;;;;;14.84;100.00;101418.47;5085072;28;20029;-67
2022/10/17 04:51:37;;;;;;;15.32;9.50;;;;;;;14.92;100.00;101422.09;5084287;28;20032;-68
2022/10/17 04:54:03;;;;;;;18.65;9.80;;;;;;;14.95;100.00;101421.22;5085740;28;20039;-67
2022/10/17 04:56:28;;;;;;;14.07;8.85;;;;;;;14.96;100.00;101415.94;5091924;28;20412;-67
2022/10/17 04:58:54;;;;;;;14.07;8.55;;;;;;;14.97;100.00;101419.44;5091819;28;20110;-68
2022/10/17 05:01:21;;;;;;;18.83;10.27;;;;;;;14.97;100.00;101424.75;5086737;28;20049;-66
2022/10/17 05:03:46;;;;;;;13.52;8.27;;;;;;;14.97;100.00;101422.97;5086766;28;20051;-67
2022/10/17 05:06:19;;;;;;;11.95;8.27;;;;;;;15.00;100.00;101415.06;5079694;28;20025;-67
2022/10/17 05:08:45;;;;;;;12.88;8.70;;;;;;;15.03;100.00;101414.22;5078771;28;20070;-67
2022/10/17 05:11:26;;;;;;;15.30;8.48;;;;;;;15.04;100.00;101418.59;5079915;28;20111;-68
2022/10/17 05:13:57;;;;;;;11.75;8.45;;;;;;;15.06;100.00;101432.78;5082980;28;20056;-67
2022/10/17 05:16:23;;;;;;;14.27;8.70;;;;;;;15.07;100.00;101442.50;5077498;28;20025;-66
2022/10/17 05:18:56;;;;;;;13.80;8.93;;;;;;;15.08;100.00;101443.38;5081045;28;20036;-66
2022/10/17 05:21:23;;;;;;;12.17;9.63;;;;;;;15.08;100.00;101449.56;5079228;28;20098;-66
2022/10/17 05:23:49;;;;;;;13.93;9.38;;;;;;;15.09;100.00;101451.34;5091732;28;20016;-68
2022/10/17 05:26:14;;;;;;;17.40;9.30;;;;;;;15.11;100.00;101456.66;5089339;28;20074;-67
2022/10/17 05:28:40;;;;;;;18.10;9.10;;;;;;;15.14;100.00;101444.31;5083938;28;20111;-66
2022/10/17 05:31:07;;;;;;;12.43;7.90;;;;;;;15.20;100.00;101443.47;5083123;28;20093;-67
2022/10/17 05:33:34;;;;;;;20.08;9.27;;;;;;;15.24;100.00;101447.03;5088576;28;20012;-67
2022/10/17 05:36:00;;;;;;;15.75;8.93;;;;;;;15.22;100.00;101440.81;5087380;28;20036;-66
2022/10/17 05:38:26;;;;;;;13.70;8.15;;;;;;;15.19;100.00;101439.03;5087047;28;20054;-67
2022/10/17 05:40:56;;;;;;;12.07;8.52;;;;;;;15.20;100.00;101443.47;5077797;28;20036;-66
2022/10/17 05:43:21;;;;;;;13.02;7.95;;;;;;;15.21;100.00;101449.69;5078936;28;20026;-67
2022/10/17 05:45:46;;;;;;;16.80;7.88;;;;;;;15.23;100.00;101442.59;5075918;28;20033;-66
2022/10/17 05:48:12;;;;;;;17.25;8.27;;;;;;;15.31;100.00;101452.41;5086789;28;20047;-66
2022/10/17 05:50:37;;;;;;;15.52;8.27;;;;;;;15.36;100.00;101449.78;5073460;28;20469;-67
2022/10/17 05:53:02;;;;;;;13.20;7.68;;;;;;;15.38;100.00;101440.03;5073862;28;20028;-67
2022/10/17 05:55:28;;;;;;;9.95;7.95;;;;;;;15.42;100.00;101433.00;5086503;28;20115;-66
2022/10/17 05:57:53;;;;;;;16.65;8.32;;;;;;;15.41;100.00;101445.41;5073350;28;20089;-66
2022/10/17 06:00:20;;;;;;;9.85;7.38;;;;;;;15.45;100.00;101443.63;5083765;28;20460;-67
2022/10/17 06:02:47;;;;;;;13.68;7.75;;;;;;;15.45;100.00;101447.19;5093312;28;20046;-66
2022/10/17 06:05:13;;;;;;;12.05;7.78;;;;;;;15.49;100.00;101456.94;5093465;28;20372;-67
2022/10/17 06:07:38;;;;;;;15.00;7.93;;;;;;;15.53;100.00;101465.78;5092685;28;20035;-65
2022/10/17 06:10:04;;;;;;;15.20;7.55;;;;;;;15.55;100.00;101469.34;5080859;28;20081;-66
2022/10/17 06:12:30;;;;;;;10.75;7.25;;;;;;;15.57;100.00;101469.34;5070437;28;20025;-67
2022/10/17 06:14:55;;;;;;;21.33;7.80;;;;;;;15.56;100.00;101476.44;5082610;28;20016;-68
2022/10/17 06:17:20;;;;;;;12.95;8.07;;;;;;;15.58;100.00;101468.47;5088819;28;20453;-68
2022/10/17 06:19:46;;;;;;;20.02;7.30;;;;;;;15.57;100.00;101487.91;5092021;28;20047;-66
2022/10/17 06:22:12;;;;;;;12.02;7.40;;;;;;;15.57;100.00;101491.47;5087207;28;20032;-67
2022/10/17 06:24:38;;;;;;;12.50;7.22;;;;;;;15.58;100.00;101495.00;5080701;28;20081;-67
2022/10/17 06:27:03;;;;;;;11.90;8.10;;;;;;;15.61;100.00;101500.31;5092874;28;20107;-67
2022/10/17 06:29:28;;;;;;;10.63;8.07;;;;;;;15.61;100.00;101492.34;5093109;28;20031;-68
2022/10/17 06:31:54;;;;;;;13.85;7.75;;;;;;;15.60;100.00;101490.56;5093127;28;20059;-67
2022/10/17 06:34:19;;;;;;;11.82;7.53;;;;;;;15.60;100.00;101495.88;5093170;28;20028;-67
2022/10/17 06:36:45;;;;;;;12.75;7.47;;;;;;;15.61;100.00;101484.41;5093032;28;20490;-67
2022/10/17 06:39:10;;;;;;;12.52;7.40;;;;;;;15.60;100.00;101479.97;5093095;28;20028;-66
2022/10/17 06:41:35;;;;;;;14.90;8.20;;;;;;;15.58;100.00;101493.22;5078620;28;20108;-67
2022/10/17 06:44:06;;;;;;;10.88;7.38;;;;;;;15.59;100.00;101500.31;5071326;28;20082;-66
2022/10/17 06:46:32;;;;;;;11.00;7.05;;;;;;;15.60;100.00;101493.22;5072692;28;20036;-66
2022/10/17 06:48:57;;;;;;;9.80;7.50;;;;;;;15.61;100.00;101484.41;5072784;28;20130;-67
2022/10/17 06:51:22;;;;;;;11.43;7.10;;;;;;;15.60;100.00;101495.88;5076513;28;20073;-66
2022/10/17 06:53:48;;;;;;;13.52;7.45;;;;;;;15.62;100.00;101499.44;5072739;28;20483;-66
2022/10/17 06:56:13;;;;;;;10.82;8.05;;;;;;;15.60;100.00;101507.41;5086970;28;20047;-66
2022/10/17 06:58:39;;;;;;;19.35;8.80;;;;;;;15.63;100.00;101512.72;5080725;28;20031;-66
2022/10/17 07:01:12;;;;;;;17.70;8.55;;;;;;;15.64;100.00;101519.81;5072472;28;20051;-66
2022/10/17 07:03:39;;;;;;;12.43;8.30;;;;;;;15.62;100.00;101529.50;5073668;28;20101;-69
2022/10/17 07:06:05;;;;;;;13.93;8.00;;;;;;;15.60;100.00;101536.59;5072424;28;20483;-67
2022/10/17 07:08:30;;;;;;;18.15;9.40;;;;;;;15.60;100.00;101554.25;5075534;28;20024;-68
2022/10/17 07:10:56;;;;;;;14.05;8.93;;;;;;;15.61;100.00;101571.94;5088957;28;20032;-67
2022/10/17 07:13:21;;;;;;;17.00;10.18;;;;;;;15.60;100.00;101571.06;5083206;28;20028;-64
2022/10/17 07:15:47;;;;;;;13.15;9.13;;;;;;;15.64;100.00;101582.56;5072734;28;20096;-66
2022/10/17 07:18:13;;;;;;;16.60;9.55;;;;;;;15.72;100.00;101591.50;5075660;28;20021;-66
2022/10/17 07:20:39;;;;;;;13.88;9.15;;;;;;;15.72;100.00;101602.13;5076614;28;20028;-67
2022/10/17 07:23:05;;;;;;;12.27;8.20;;;;;;;15.78;100.00;101598.63;5075100;28;20074;-68
2022/10/17 07:25:30;;;;;;;18.08;8.00;;;;;;;15.81;100.00;101610.16;5084279;28;20024;-67
2022/10/17 07:27:56;;;;;;;15.45;8.13;;;;;;;15.85;100.00;101613.72;5096240;28;20038;-66
2022/10/17 07:30:22;;;;;;;11.23;8.48;;;;;;;15.93;100.00;101627.06;5096316;28;20024;-66
2022/10/17 07:32:47;;;;;;;12.27;7.88;;;;;;;15.97;100.00;101634.16;5080437;28;20063;-66
2022/10/17 07:35:13;;;;;;;14.20;7.65;;;;;;;15.99;100.00;101659.84;5076267;28;20020;-67
2022/10/17 07:37:39;;;;;;;13.93;7.85;;;;;;;16.05;100.00;101664.31;5075801;28;20046;-66
2022/10/17 07:40:06;;;;;;;14.77;8.23;;;;;;;16.08;100.00;101674.06;5077073;28;20107;-66
2022/10/17 07:42:34;;;;;;;12.30;7.60;;;;;;;16.07;100.00;101672.28;5075744;28;20032;-66
2022/10/17 07:45:00;;;;;;;10.07;7.70;;;;;;;16.05;100.00;101680.25;5076031;28;20028;-66
2022/10/17 07:47:25;;;;;;;23.70;9.38;;;;;;;16.05;100.00;101677.59;5075645;28;20032;-65
2022/10/17 07:49:51;;;;;;;16.73;8.50;;;;;;;16.05;100.00;101701.47;5075825;28;20029;-67
2022/10/17 07:52:16;;;;;;;15.85;8.88;;;;;;;16.02;100.00;101704.13;5075546;28;20119;-66
2022/10/17 07:54:42;;;;;;;13.00;8.25;;;;;;;16.01;100.00;101719.13;5077353;28;20031;-66
2022/10/17 07:57:08;;;;;;;12.73;8.82;;;;;;;16.01;100.00;101715.59;5095594;28;20068;-67
2022/10/17 07:59:36;;;;;;;18.92;8.95;;;;;;;16.03;100.00;101713.84;5094583;28;20020;-68
2022/10/17 08:02:02;;;;;;;11.55;8.60;;;;;;;16.07;100.00;101717.41;5086221;28;20031;-67
2022/10/17 08:04:27;;;;;;;14.60;9.63;;;;;;;16.03;100.00;101713.84;5080045;28;20032;-67
2022/10/17 08:06:53;;;;;;;17.10;9.60;;;;;;;16.04;100.00;101715.63;5083713;28;20054;-66
2022/10/17 08:09:18;;;;;;;14.77;9.55;;;;;;;16.05;100.00;101717.41;5075354;28;20052;-66
2022/10/17 08:11:44;;;;;;;15.45;10.05;;;;;;;16.07;100.00;101726.25;5093837;28;20020;-66
2022/10/17 08:14:10;;;;;;;19.63;9.90;;;;;;;16.08;100.00;101716.56;5095830;28;20027;-66
2022/10/17 08:16:36;;;;;;;18.23;10.02;;;;;;;16.07;100.00;101715.63;5095633;28;20107;-66
2022/10/17 08:19:01;;;;;;;18.35;9.93;;;;;;;16.05;100.00;101721.81;5095477;28;20051;-66
2022/10/17 08:21:26;;;;;;;19.55;10.63;;;;;;;16.01;100.00;101710.31;5087823;28;20028;-67
2022/10/17 08:23:52;;;;;;;16.63;9.68;;;;;;;16.00;100.00;101708.50;5081414;28;20028;-66
2022/10/17 08:26:18;;;;;;;18.02;10.50;;;;;;;15.98;100.00;101695.22;5093996;28;20032;-66
2022/10/17 08:28:45;;;;;;;18.92;9.55;;;;;;;15.94;100.00;101689.88;5095457;28;20517;-65
2022/10/17 08:31:18;;;;;;;18.00;10.20;;;;;;;15.91;100.00;101682.81;5090662;28;20407;-66
2022/10/17 08:33:44;;;;;;;19.80;10.00;;;;;;;15.87;100.00;101694.28;5074911;28;20025;-66
2022/10/17 08:36:13;;;;;;;16.17;9.95;;;;;;;15.89;100.00;101697.81;5073777;28;20107;-66
2022/10/17 08:38:38;;;;;;;17.67;10.73;;;;;;;15.87;100.00;101681.00;5074820;28;20028;-66
2022/10/17 08:41:32;;;;;;;15.23;10.27;;;;;;;15.85;100.00;101662.38;5084479;28;20479;-66
2022/10/17 08:44:10;;;;;;;21.48;11.43;;;;;;;15.82;100.00;101662.38;5092188;28;20047;-65
2022/10/17 08:46:39;;;;;;;17.70;10.82;;;;;;;15.83;100.00;101657.97;5095147;28;20069;-65
2022/10/17 08:49:12;;;;;;;21.75;11.00;;;;;;;15.81;100.00;101665.00;5095029;28;20485;-66
2022/10/17 08:51:47;;;;;;;20.90;11.57;;;;;;;15.82;100.00;101675.63;5085117;28;20029;-66
2022/10/17 08:54:21;;;;;;;18.60;11.68;;;;;;;15.82;100.00;101691.56;5090813;28;20051;-66
2022/10/17 08:56:53;;;;;;;18.70;11.38;;;;;;;15.82;100.00;101699.50;5086000;28;20037;-66
2022/10/17 08:59:29;;;;;;;17.13;10.93;;;;;;;15.88;100.00;101703.09;5074676;28;20420;-65
2022/10/17 09:02:21;;;;;;;19.30;11.90;;;;;;;15.85;100.00;101712.81;5090537;28;20073;-65
2022/10/17 09:05:08;;;;;;;24.90;12.02;;;;;;;15.89;100.00;101720.81;5094694;28;20114;-65
2022/10/17 09:07:48;;;;;;;20.15;12.00;;;;;;;15.89;100.00;101721.69;5094496;28;20027;-65
2022/10/17 09:10:39;;;;;;;18.65;11.50;;;;;;;15.89;100.00;101729.66;5093281;28;20024;-65
2022/10/17 09:13:25;;;;;;;19.58;11.57;;;;;;;15.89;100.00;101716.38;5089662;28;20077;-66
2022/10/17 09:16:12;;;;;;;22.05;12.70;;;;;;;15.90;100.00;101712.88;5093197;28;20027;-65
2022/10/17 09:18:44;;;;;;;23.33;11.73;;;;;;;15.92;100.00;101707.56;5094385;28;20024;-66
2022/10/17 09:21:19;;;;;;;22.43;11.20;;;;;;;15.95;100.00;101710.22;5092748;28;20024;-65
2022/10/17 09:23:52;;;;;;;23.40;12.05;;;;;;;15.94;100.00;101703.13;5092682;28;20308;-65
2022/10/17 09:26:17;;;;;;;21.50;12.10;;;;;;;15.96;100.00;101710.25;5094196;28;20533;-66
2022/10/17 09:28:42;;;;;;;27.90;13.00;;;;;;;15.98;100.00;101708.50;5094084;28;20035;-65
2022/10/17 09:31:27;;;;;;;24.50;12.30;;;;;;;16.01;100.00;101721.78;5094006;28;20077;-65
2022/10/17 09:33:55;;;;;;;25.00;11.43;;;;;;;16.02;100.00;101730.66;5094008;28;20016;-65
2022/10/17 09:36:35;;;;;;;24.27;12.68;;;;;;;16.02;100.00;101743.94;5085358;28;20036;-66
2022/10/17 09:39:18;;;;;;;22.50;12.60;;;;;;;16.02;100.00;101754.56;5074583;28;20113;-65
2022/10/17 09:41:53;;;;;;;24.05;12.07;;;;;;;16.00;100.00;101778.41;5081387;28;20036;-64
2022/10/17 09:44:33;;;;;;;23.85;12.05;;;;;;;15.98;100.00;101784.63;5092677;28;20570;-66
2022/10/17 09:47:12;;;;;;;19.00;11.30;;;;;;;15.98;100.00;101795.22;5092717;28;20032;-66
2022/10/17 09:49:40;;;;;;;19.98;12.75;;;;;;;15.99;100.00;101791.69;5079993;28;20122;-66
2022/10/17 09:52:11;;;;;;;20.60;11.70;;;;;;;15.99;100.00;101789.94;5076004;28;20028;-66
2022/10/17 09:54:44;;;;;;;27.77;12.98;;;;;;;16.00;100.00;101798.78;5093824;28;20161;-64
2022/10/17 09:57:11;;;;;;;26.00;11.02;;;;;;;16.00;100.00;101801.44;5089495;28;20048;-64
2022/10/17 09:59:38;;;;;;;17.08;10.48;;;;;;;15.99;100.00;101807.59;5091726;28;20032;-64
2022/10/17 10:02:12;;;;;;;18.15;10.32;;;;;;;15.98;100.00;101817.34;5092248;28;20039;-64
2022/10/17 10:05:05;;;;;;;20.10;9.90;;;;;;;15.92;100.00;101808.44;5075018;28;20099;-65
2022/10/17 10:07:38;;;;;;;16.52;9.20;;;;;;;15.90;100.00;101813.72;5073337;28;20472;-65
2022/10/17 10:10:06;;;;;;;21.17;10.45;;;;;;;15.91;100.00;101827.88;5078215;28;20058;-65
2022/10/17 10:12:35;;;;;;;20.67;9.88;;;;;;;15.90;100.00;101832.31;5093301;28;20099;-66
2022/10/17 10:15:01;;;;;;;17.05;9.57;;;;;;;15.87;100.00;101826.97;5093485;28;20047;-66
2022/10/17 10:17:34;;;;;;;18.92;9.65;;;;;;;15.85;100.00;101834.91;5093281;28;20055;-66
2022/10/17 10:20:01;;;;;;;20.33;10.02;;;;;;;15.88;100.00;101835.81;5074697;28;20541;-64
2022/10/17 10:22:27;;;;;;;15.85;10.50;;;;;;;15.90;100.00;101840.28;5073157;28;20017;-65
2022/10/17 10:25:15;;;;;;;17.80;10.32;;;;;;;15.89;100.00;101849.09;5073007;28;20025;-65
2022/10/17 10:27:43;;;;;;;17.17;9.40;;;;;;;15.88;100.00;101857.06;5074212;28;20031;-66
2022/10/17 10:30:20;;;;;;;16.17;8.93;;;;;;;15.88;100.00;101865.88;5084265;28;20020;-65
2022/10/17 10:32:48;;;;;;;19.40;9.32;;;;;;;15.86;100.00;101865.00;5072960;28;20030;-66
2022/10/17 10:35:36;;;;;;;18.85;9.45;;;;;;;15.81;100.00;101862.28;5084331;28;20032;-65
2022/10/17 10:38:08;;;;;;;20.67;8.85;;;;;;;15.82;100.00;101866.72;5093318;28;20028;-65
2022/10/17 10:40:47;;;;;;;16.13;8.33;;;;;;;15.81;100.00;101866.72;5092128;28;20028;-65
2022/10/17 10:43:45;;;;;;;18.25;9.25;;;;;;;15.82;100.00;101877.34;5088862;28;20035;-66
2022/10/17 10:46:37;;;;;;;14.88;8.88;;;;;;;15.82;100.00;101882.66;5075766;28;20031;-65
2022/10/17 10:49:02;;;;;;;11.13;7.60;;;;;;;15.79;100.00;101885.25;5070004;28;20039;-66
2022/10/17 10:51:33;;;;;;;12.25;6.88;;;;;;;15.72;100.00;101887.78;5072849;28;20028;-66
2022/10/17 10:54:27;;;;;;;10.43;6.78;;;;;;;15.73;100.00;101878.97;5075550;28;20031;-65
2022/10/17 10:56:56;;;;;;;10.15;5.93;;;;;;;15.70;100.00;101874.50;5095891;28;20135;-65
2022/10/17 10:59:36;;;;;;;12.18;5.88;;;;;;;15.65;100.00;101881.50;5096914;28;20484;-65
2022/10/17 11:02:17;;;;;;;7.65;5.25;;;;;;;15.62;100.00;101898.28;5096925;28;20024;-65
2022/10/17 11:05:02;;;;;;;8.73;5.22;;;;;;;15.57;100.00;101900.00;5096937;28;20016;-66
2022/10/17 11:07:46;;;;;;;11.05;5.38;;;;;;;15.55;100.00;101896.44;5096838;28;20152;-65
2022/10/17 11:10:34;;;;;;;10.98;5.65;;;;;;;15.50;100.00;101899.03;5096820;28;20020;-65
2022/10/17 11:13:10;;;;;;;9.60;5.15;;;;;;;15.45;100.00;101884.81;5096609;28;20020;-66
2022/10/17 11:15:44;;;;;;;10.70;4.32;;;;;;;15.40;100.00;101888.28;5096791;28;20024;-66
2022/10/17 11:18:34;;;;;;;12.20;4.10;;;;;;;15.37;100.00;101891.78;5093559;28;20047;-66
2022/10/17 11:21:22;;;;;;;5.63;3.78;;;;;;;15.31;100.00;101910.25;5096788;28;20403;-66